Terminal Aerodrome Forecast
Issued by NWS

Home | Current Version | Previous Version | Text Only | Print | Product List | Glossary Off
Versions: 1 2 3 4 5 6 7 8 9 10 11 12 13 14 15 16

000
FTUS45 KGGW 220315 AAA
TAFOLF
TAF AMD
KOLF 220315Z 2203/2224 03005KT 5SM -RASN SCT013 OVC030
     FM220900 02007KT 2SM -SN SCT003 OVC007
     FM221800 03009KT P6SM OVC010=

USA.gov is the U.S. government's official web portal to all federal, state and local government web resources and services.